createdAt,value
2022-11-08T00:02:29.012Z,99754.59
2022-11-08T00:05:34.785Z,99753.06
2022-11-08T00:08:40.591Z,99753.38
2022-11-08T00:11:46.130Z,99751.03
2022-11-08T00:14:35.424Z,99750.06
2022-11-08T00:17:24.696Z,99750.56
2022-11-08T00:20:12.649Z,99750.78
2022-11-08T00:23:00.700Z,99746.16
2022-11-08T00:25:54.424Z,99742.69
2022-11-08T00:28:42.382Z,99739.91
2022-11-08T00:31:31.620Z,99734.38
2022-11-08T00:34:19.560Z,99727.69
2022-11-08T00:37:07.725Z,99731.56
2022-11-08T00:39:55.633Z,99729.19
2022-11-08T00:42:43.534Z,99724.78
2022-11-08T00:45:31.525Z,99722.00
2022-11-08T00:48:20.953Z,99728.03
2022-11-08T00:51:11.735Z,99707.41
2022-11-08T00:53:59.973Z,99727.16
2022-11-08T00:56:48.796Z,99721.19
2022-11-08T00:59:36.944Z,99721.56
2022-11-08T01:02:24.935Z,99718.03
2022-11-08T01:05:14.304Z,99714.03
2022-11-08T01:08:02.243Z,99703.53
2022-11-08T01:10:51.425Z,99700.72
2022-11-08T01:13:39.416Z,99697.03
2022-11-08T01:16:29.717Z,99688.78
2022-11-08T01:19:17.627Z,99693.94
2022-11-08T01:22:06.884Z,99698.22
2022-11-08T01:24:54.794Z,99692.84
2022-11-08T01:27:43.480Z,99690.56
2022-11-08T01:30:31.432Z,99694.88
2022-11-08T01:33:19.484Z,99693.22
2022-11-08T01:36:08.335Z,99685.91
2022-11-08T01:38:58.060Z,99676.06
2022-11-08T01:41:45.972Z,99678.81
2022-11-08T01:44:33.880Z,99665.56
2022-11-08T01:47:21.780Z,99655.31
2022-11-08T01:50:15.451Z,99662.88
2022-11-08T01:53:03.388Z,99661.47
2022-11-08T01:55:53.694Z,99662.34
2022-11-08T01:58:43.845Z,99659.97
2022-11-08T02:01:32.467Z,99662.66
2022-11-08T02:04:20.928Z,99652.41
2022-11-08T02:07:10.277Z,99650.44
2022-11-08T02:09:58.482Z,99648.94
2022-11-08T02:12:47.808Z,99639.50
2022-11-08T02:15:36.244Z,99642.25
2022-11-08T02:18:26.107Z,99624.53
2022-11-08T02:21:18.360Z,99612.34
2022-11-08T02:24:11.593Z,99636.88
2022-11-08T02:27:00.181Z,99636.22
2022-11-08T02:29:48.075Z,99637.47
2022-11-08T02:32:40.058Z,99639.16
2022-11-08T02:35:28.725Z,99638.38
2022-11-08T02:38:17.463Z,99628.88
2022-11-08T02:41:07.689Z,99630.53
2022-11-08T02:43:55.607Z,99613.66
2022-11-08T02:46:43.504Z,99621.59
2022-11-08T02:49:31.415Z,99627.19
2022-11-08T02:52:19.377Z,99627.22
2022-11-08T02:55:08.388Z,99631.91
2022-11-08T02:57:58.165Z,99629.13
2022-11-08T03:00:46.107Z,99614.97
2022-11-08T03:03:34.031Z,99618.91
2022-11-08T03:06:21.950Z,99603.97
2022-11-08T03:09:10.895Z,99607.88
2022-11-08T03:11:58.845Z,99615.34
2022-11-08T03:14:48.076Z,99611.50
2022-11-08T03:17:36.057Z,99609.13
2022-11-08T03:20:28.254Z,99605.56
2022-11-08T03:23:20.574Z,99610.31
2022-11-08T03:26:08.813Z,99611.91
2022-11-08T03:28:56.692Z,99609.56
2022-11-08T03:31:46.017Z,99608.34
2022-11-08T03:34:34.054Z,99606.38
2022-11-08T03:37:22.999Z,99602.00
2022-11-08T03:40:12.437Z,99502.75
2022-11-08T03:43:00.418Z,99593.81
2022-11-08T03:45:48.329Z,99595.75
2022-11-08T03:48:37.596Z,99587.50
2022-11-08T03:51:25.516Z,99582.00
2022-11-08T03:54:13.462Z,99584.34
2022-11-08T03:57:01.412Z,99576.06
2022-11-08T03:59:49.353Z,99573.31
2022-11-08T04:02:37.356Z,99569.78
2022-11-08T04:05:26.763Z,99557.22
2022-11-08T04:08:14.917Z,99548.16
2022-11-08T04:11:23.341Z,99553.22
2022-11-08T04:14:37.122Z,99550.50
2022-11-08T04:17:45.102Z,99555.59
2022-11-08T04:20:51.949Z,99542.66
2022-11-08T04:23:39.865Z,99544.97
2022-11-08T04:26:27.801Z,99545.78
2022-11-08T04:29:15.856Z,99540.69
2022-11-08T04:32:03.873Z,99534.44
2022-11-08T04:34:51.807Z,99541.13
2022-11-08T04:37:41.100Z,99538.75
2022-11-08T04:40:31.389Z,99531.31
2022-11-08T04:43:19.289Z,99540.72
2022-11-08T04:46:09.000Z,99529.78
2022-11-08T04:48:58.371Z,99530.97
2022-11-08T04:51:46.274Z,99529.75
2022-11-08T04:54:35.497Z,99523.06
2022-11-08T04:57:23.394Z,99528.59
2022-11-08T05:00:12.541Z,99534.06
2022-11-08T05:03:03.049Z,99537.19
2022-11-08T05:05:51.036Z,99531.69
2022-11-08T05:08:39.561Z,99535.63
2022-11-08T05:11:30.145Z,99521.47
2022-11-08T05:14:18.204Z,99531.63
2022-11-08T05:17:06.156Z,99517.91
2022-11-08T05:20:11.461Z,99519.78
2022-11-08T05:23:19.679Z,99528.31
2022-11-08T05:26:08.032Z,99532.91
2022-11-08T05:28:57.354Z,99535.91
2022-11-08T05:31:45.311Z,99541.97
2022-11-08T05:34:33.229Z,99538.75
2022-11-08T05:37:21.167Z,99534.25
2022-11-08T05:40:11.119Z,99533.75
2022-11-08T05:42:59.005Z,99524.22
2022-11-08T05:45:48.285Z,99518.53
2022-11-08T05:48:36.920Z,99516.94
2022-11-08T05:51:24.964Z,99510.53
2022-11-08T05:54:13.104Z,99501.81
2022-11-08T05:57:01.013Z,99490.00
2022-11-08T05:59:49.012Z,99487.78
2022-11-08T06:02:38.362Z,99495.41
2022-11-08T06:05:26.285Z,99492.13
2022-11-08T06:08:14.724Z,99478.22
2022-11-08T06:11:03.611Z,99480.66
2022-11-08T06:13:51.563Z,99481.19
2022-11-08T06:16:39.462Z,99473.91
2022-11-08T06:19:28.775Z,99477.94
2022-11-08T06:22:16.799Z,99483.06
2022-11-08T06:25:05.934Z,99483.75
2022-11-08T06:27:53.862Z,99482.88
2022-11-08T06:30:42.124Z,99487.53
2022-11-08T06:33:30.751Z,99428.31
2022-11-08T06:36:21.387Z,99486.13
2022-11-08T06:39:09.363Z,99490.84
2022-11-08T06:41:57.240Z,99501.44
2022-11-08T06:44:45.125Z,99510.41
2022-11-08T06:47:33.044Z,99510.06
2022-11-08T06:50:20.927Z,99508.81
2022-11-08T06:53:12.429Z,99511.16
2022-11-08T06:56:00.355Z,99518.66
2022-11-08T06:58:48.214Z,99519.06
2022-11-08T07:01:36.393Z,99516.66
2022-11-08T07:04:04.377Z,99516.22
2022-11-08T07:06:32.066Z,99516.69
2022-11-08T07:09:01.085Z,99507.72
2022-11-08T07:11:28.715Z,99508.09
2022-11-08T07:13:56.319Z,99513.56
2022-11-08T07:16:23.965Z,99523.44
2022-11-08T07:18:51.802Z,99511.31
2022-11-08T07:21:19.602Z,99520.78
2022-11-08T07:23:48.462Z,99514.97
2022-11-08T07:26:17.422Z,99517.78
2022-11-08T07:28:45.097Z,99517.09
2022-11-08T07:31:12.987Z,99515.94
2022-11-08T07:33:40.649Z,99510.13
2022-11-08T07:36:08.869Z,99507.06
2022-11-08T07:38:36.585Z,99504.78
2022-11-08T07:41:04.518Z,99508.78
2022-11-08T07:43:33.558Z,99507.22
2022-11-08T07:46:10.270Z,99504.94
2022-11-08T07:48:37.888Z,99503.41
2022-11-08T07:51:05.655Z,99510.91
2022-11-08T07:53:33.336Z,99517.59
2022-11-08T07:56:00.960Z,99510.13
2022-11-08T07:58:28.690Z,99503.41
2022-11-08T08:01:01.845Z,99508.88
2022-11-08T08:03:29.691Z,99512.03
2022-11-08T08:06:00.973Z,99510.44
2022-11-08T08:08:29.997Z,99512.00
2022-11-08T08:11:00.010Z,99499.03
2022-11-08T08:13:27.858Z,99507.25
2022-11-08T08:16:00.851Z,99487.19
2022-11-08T08:18:29.174Z,99518.53
2022-11-08T08:20:57.304Z,99528.34
2022-11-08T08:23:25.015Z,99531.44
2022-11-08T08:25:52.796Z,99542.41
2022-11-08T08:28:20.499Z,99536.22
2022-11-08T08:30:48.093Z,99547.28
2022-11-08T08:33:34.709Z,99548.09
2022-11-08T08:36:02.634Z,99545.78
2022-11-08T08:38:31.078Z,99541.81
2022-11-08T08:40:58.946Z,99541.81
2022-11-08T08:43:27.453Z,99539.81
2022-11-08T08:45:55.242Z,99543.75
2022-11-08T08:48:24.229Z,99555.97
2022-11-08T08:50:51.889Z,99550.06
2022-11-08T08:53:19.921Z,99557.50
2022-11-08T08:55:48.192Z,99553.56
2022-11-08T08:58:15.875Z,99567.22
2022-11-08T09:03:34.546Z,99554.84
2022-11-08T09:06:03.039Z,99539.78
2022-11-08T09:08:31.581Z,99564.94
2022-11-08T09:11:01.280Z,99567.63
2022-11-08T09:13:31.908Z,99535.75
2022-11-08T09:16:01.331Z,99564.09
2022-11-08T09:18:29.357Z,99561.84
2022-11-08T09:20:59.053Z,99569.78
2022-11-08T09:23:27.027Z,99563.56
2022-11-08T09:25:58.546Z,99559.22
2022-11-08T09:28:30.986Z,99558.69
2022-11-08T09:31:01.802Z,99575.66
2022-11-08T09:33:29.549Z,99574.00
2022-11-08T09:36:00.227Z,99572.00
2022-11-08T09:38:27.961Z,99568.66
2022-11-08T09:41:10.176Z,99572.28
2022-11-08T09:43:48.098Z,99575.72
2022-11-08T09:46:22.815Z,99562.19
2022-11-08T09:48:52.631Z,99566.09
2022-11-08T09:51:24.698Z,99559.94
2022-11-08T09:53:54.743Z,99574.28
2022-11-08T09:56:25.737Z,99566.69
2022-11-08T09:58:55.328Z,99575.75
2022-11-08T10:01:27.217Z,99539.41
2022-11-08T10:03:58.770Z,99579.28
2022-11-08T10:06:54.049Z,99570.72
2022-11-08T10:09:38.060Z,99573.22
2022-11-08T10:12:16.050Z,99572.25
2022-11-08T10:14:58.105Z,99567.47
2022-11-08T10:17:51.759Z,99562.56
2022-11-08T10:20:31.539Z,99570.91
2022-11-08T10:23:14.896Z,99564.28
2022-11-08T10:25:47.588Z,99559.16
2022-11-08T10:28:17.931Z,99553.63
2022-11-08T10:30:49.643Z,99554.38
2022-11-08T10:33:24.425Z,99542.22
2022-11-08T10:36:02.101Z,99555.03
2022-11-08T10:38:40.630Z,99554.78
2022-11-08T10:41:14.849Z,99544.44
2022-11-08T10:43:45.937Z,99560.03
2022-11-08T10:46:27.869Z,99544.31
2022-11-08T10:48:58.672Z,99551.59
2022-11-08T10:51:26.326Z,99560.84
2022-11-08T10:53:55.335Z,99560.84
2022-11-08T10:56:24.758Z,99557.41
2022-11-08T10:58:52.436Z,99494.97
2022-11-08T11:01:22.761Z,99550.28
2022-11-08T11:03:51.751Z,99560.78
2022-11-08T11:06:25.536Z,99549.66
2022-11-08T11:08:58.467Z,99549.53
2022-11-08T11:11:28.763Z,99551.09
2022-11-08T11:14:07.718Z,99551.41
2022-11-08T11:16:36.576Z,99547.19
2022-11-08T11:19:06.857Z,99543.75
2022-11-08T11:21:38.966Z,99539.34
2022-11-08T11:24:13.364Z,99542.06
2022-11-08T11:26:46.556Z,99538.53
2022-11-08T11:29:21.349Z,99529.78
2022-11-08T11:31:52.078Z,99529.09
2022-11-08T11:34:33.095Z,99536.84
2022-11-08T11:37:06.016Z,99499.06
2022-11-08T11:39:41.219Z,99530.72
2022-11-08T11:42:43.819Z,99512.22
2022-11-08T11:45:12.570Z,99522.03
2022-11-08T11:47:47.853Z,99522.81
2022-11-08T11:50:34.906Z,99513.06
2022-11-08T11:53:07.602Z,99510.44
2022-11-08T11:55:56.460Z,99509.03
2022-11-08T11:59:05.796Z,99516.81
2022-11-08T12:01:50.382Z,99521.28
2022-11-08T12:04:52.110Z,99504.75
2022-11-08T12:07:25.197Z,99512.13
2022-11-08T12:10:07.076Z,99499.34
2022-11-08T12:12:50.426Z,99501.34
2022-11-08T12:15:26.923Z,99494.44
2022-11-08T12:18:25.692Z,99490.91
2022-11-08T12:21:07.732Z,99488.59
2022-11-08T12:24:01.266Z,99490.38
2022-11-08T12:26:34.613Z,99478.44
2022-11-08T12:29:21.941Z,99480.28
2022-11-08T12:32:00.703Z,99470.31
2022-11-08T12:34:35.687Z,99477.69
2022-11-08T12:37:17.675Z,99471.16
2022-11-08T12:39:48.240Z,99471.44
2022-11-08T12:42:28.514Z,99474.00
2022-11-08T12:45:25.537Z,99468.38
2022-11-08T12:47:58.214Z,99468.03
2022-11-08T12:50:33.222Z,99457.47
2022-11-08T12:53:30.045Z,99443.91
2022-11-08T12:55:59.472Z,99444.09
2022-11-08T12:58:36.368Z,99441.78
2022-11-08T13:01:08.561Z,99444.69
2022-11-08T13:03:57.913Z,99450.59
2022-11-08T13:06:35.154Z,99436.59
2022-11-08T13:09:11.284Z,99440.41
2022-11-08T13:11:44.438Z,99452.53
2022-11-08T13:14:16.542Z,99447.06
2022-11-08T13:16:47.015Z,99441.63
2022-11-08T13:19:30.508Z,99432.44
2022-11-08T13:21:58.444Z,99430.28
2022-11-08T13:24:49.810Z,99389.25
2022-11-08T13:27:26.250Z,99423.81
2022-11-08T13:29:54.315Z,99427.63
2022-11-08T13:32:33.765Z,99421.78
2022-11-08T13:35:08.119Z,99425.41
2022-11-08T13:37:52.190Z,99428.59
2022-11-08T13:40:28.117Z,99430.44
2022-11-08T13:43:15.577Z,99429.34
2022-11-08T13:45:45.065Z,99420.03
2022-11-08T13:48:43.207Z,99434.13
2022-11-08T13:51:28.498Z,99433.72
2022-11-08T13:53:58.982Z,99428.09
2022-11-08T13:56:46.826Z,99425.78
2022-11-08T13:59:49.858Z,99429.34
2022-11-08T14:02:37.543Z,99437.59
2022-11-08T14:05:41.150Z,99433.84
2022-11-08T14:08:23.916Z,99428.47
2022-11-08T14:11:28.915Z,99430.72
2022-11-08T14:14:12.495Z,99428.56
2022-11-08T14:16:49.899Z,99421.19
2022-11-08T14:19:22.308Z,99413.03
2022-11-08T14:21:53.901Z,99410.13
2022-11-08T14:24:24.720Z,99403.97
2022-11-08T14:26:53.005Z,99399.56
2022-11-08T14:29:23.251Z,99405.75
2022-11-08T14:32:03.119Z,99407.34
2022-11-08T14:34:34.032Z,99400.03
2022-11-08T14:37:04.418Z,99373.47
2022-11-08T14:39:33.744Z,99403.66
2022-11-08T14:42:04.432Z,99398.56
2022-11-08T14:44:33.235Z,99400.91
2022-11-08T14:47:00.878Z,99395.53
2022-11-08T14:49:33.428Z,99393.50
2022-11-08T14:52:17.185Z,99396.22
2022-11-08T14:54:46.568Z,99401.31
2022-11-08T14:57:31.379Z,99405.53
2022-11-08T14:59:59.530Z,99404.13
2022-11-08T15:02:27.392Z,99393.25
2022-11-08T15:04:55.172Z,99404.09
2022-11-08T15:07:26.198Z,99398.56
2022-11-08T15:09:54.563Z,99392.91
2022-11-08T15:12:24.746Z,99388.50
2022-11-08T15:14:57.553Z,99375.72
2022-11-08T15:17:36.696Z,99372.09
2022-11-08T15:20:08.384Z,99371.94
2022-11-08T15:22:37.942Z,99376.19
2022-11-08T15:25:22.837Z,99367.94
2022-11-08T15:27:52.360Z,99370.75
2022-11-08T15:30:21.706Z,99371.31
2022-11-08T15:32:50.216Z,99361.97
2022-11-08T15:35:23.542Z,99365.00
2022-11-08T15:37:53.085Z,99368.22
2022-11-08T15:40:28.052Z,99371.38
2022-11-08T15:42:55.847Z,99383.16
2022-11-08T15:45:26.656Z,99382.69
2022-11-08T15:48:00.345Z,99294.88
2022-11-08T15:50:30.349Z,99375.97
2022-11-08T15:53:01.708Z,99371.91
2022-11-08T15:55:31.474Z,99373.34
2022-11-08T15:58:00.134Z,99373.66
2022-11-08T16:00:30.789Z,99377.53
2022-11-08T16:02:59.483Z,99368.06
2022-11-08T16:05:29.133Z,99370.75
2022-11-08T16:07:56.807Z,99364.72
2022-11-08T16:10:32.065Z,99367.72
2022-11-08T16:13:01.488Z,99365.56
2022-11-08T16:15:32.135Z,99367.63
2022-11-08T16:18:00.160Z,99370.44
2022-11-08T16:20:29.400Z,99363.41
2022-11-08T16:22:58.037Z,99370.19
2022-11-08T16:25:29.004Z,99361.75
2022-11-08T16:27:58.858Z,99362.44
2022-11-08T16:30:27.381Z,99360.56
2022-11-08T16:32:55.017Z,99353.97
2022-11-08T16:35:23.360Z,99352.50
2022-11-08T16:37:52.011Z,99358.03
2022-11-08T16:40:21.793Z,99342.34
2022-11-08T16:42:52.238Z,99347.69
2022-11-08T16:45:43.462Z,99335.97
2022-11-08T16:48:17.212Z,99341.00
2022-11-08T16:50:45.780Z,99337.56
2022-11-08T16:53:16.324Z,99332.91
2022-11-08T16:55:44.087Z,99344.13
2022-11-08T16:58:13.356Z,99340.22
2022-11-08T17:00:43.330Z,99341.41
2022-11-08T17:03:14.443Z,99347.28
2022-11-08T17:05:42.350Z,99354.41
2022-11-08T17:08:10.113Z,99351.63
2022-11-08T17:10:37.752Z,99353.16
2022-11-08T17:13:05.372Z,99350.34
2022-11-08T17:15:34.614Z,99355.81
2022-11-08T17:18:03.122Z,99369.72
2022-11-08T17:20:30.719Z,99357.84
2022-11-08T17:22:58.580Z,99368.03
2022-11-08T17:25:26.253Z,99371.16
2022-11-08T17:27:54.345Z,99367.13
2022-11-08T17:30:26.485Z,99365.94
2022-11-08T17:32:55.916Z,99378.22
2022-11-08T17:35:23.643Z,99380.00
2022-11-08T17:37:53.267Z,99372.66
2022-11-08T17:40:21.101Z,99375.66
2022-11-08T17:42:49.506Z,99377.63
2022-11-08T17:45:17.307Z,99370.44
2022-11-08T17:47:44.906Z,99364.53
2022-11-08T17:50:13.851Z,99374.47
2022-11-08T17:52:42.208Z,99372.16
2022-11-08T17:55:09.919Z,99363.94
2022-11-08T17:57:37.707Z,99364.09
2022-11-08T18:00:09.978Z,99360.13
2022-11-08T18:02:40.208Z,99356.34
2022-11-08T18:05:08.561Z,99365.63
2022-11-08T18:07:38.381Z,99358.59
2022-11-08T18:10:09.113Z,99358.97
2022-11-08T18:12:36.948Z,99355.00
2022-11-08T18:15:05.105Z,99357.63
2022-11-08T18:17:32.970Z,99360.00
2022-11-08T18:20:00.581Z,99351.31
2022-11-08T18:22:28.227Z,99359.88
2022-11-08T18:24:57.216Z,99363.44
2022-11-08T18:27:24.887Z,99359.22
2022-11-08T18:29:52.556Z,99359.53
2022-11-08T18:32:20.203Z,99366.25
2022-11-08T18:34:48.840Z,99366.94
2022-11-08T18:37:17.290Z,99356.34
2022-11-08T18:39:44.970Z,99379.13
2022-11-08T18:42:13.962Z,99371.63
2022-11-08T18:44:41.662Z,99368.44
2022-11-08T18:47:09.267Z,99370.06
2022-11-08T18:49:36.940Z,99369.31
2022-11-08T18:52:04.911Z,99378.84
2022-11-08T18:54:32.922Z,99374.91
2022-11-08T18:57:00.552Z,99375.41
2022-11-08T18:59:29.546Z,99381.31
2022-11-08T19:01:57.680Z,99372.72
2022-11-08T19:04:25.541Z,99384.94
2022-11-08T19:06:54.748Z,99363.06
2022-11-08T19:09:23.187Z,99369.03
2022-11-08T19:11:50.818Z,99363.91
2022-11-08T19:14:19.324Z,99362.75
2022-11-08T19:16:48.979Z,99358.66
2022-11-08T19:19:16.799Z,99352.03
2022-11-08T19:21:44.526Z,99362.94
2022-11-08T19:24:12.291Z,99360.31
2022-11-08T19:26:39.991Z,99350.69
2022-11-08T19:29:10.469Z,99349.03
2022-11-08T19:31:38.975Z,99354.47
2022-11-08T19:34:07.985Z,99364.63
2022-11-08T19:36:40.302Z,99378.56
2022-11-08T19:39:08.077Z,99368.94
2022-11-08T19:41:35.759Z,99368.22
2022-11-08T19:44:04.940Z,99366.31
2022-11-08T19:46:33.891Z,99377.41
2022-11-08T19:49:03.390Z,99387.00
2022-11-08T19:51:34.476Z,99378.47
2022-11-08T19:54:05.751Z,99378.69
2022-11-08T19:57:02.551Z,99372.84
2022-11-08T19:59:21.551Z,99374.78
2022-11-08T20:01:49.265Z,99366.97
2022-11-08T20:04:18.344Z,99370.31
2022-11-08T20:06:47.616Z,99364.97
2022-11-08T20:09:15.836Z,99295.44
2022-11-08T20:11:43.720Z,99366.72
2022-11-08T20:14:13.965Z,99366.19
2022-11-08T20:16:45.732Z,99373.22
2022-11-08T20:19:17.783Z,99381.06
2022-11-08T20:21:46.956Z,99389.81
2022-11-08T20:24:15.951Z,99388.47
2022-11-08T20:26:45.013Z,99385.81
2022-11-08T20:29:14.408Z,99392.19
2022-11-08T20:31:42.787Z,99387.19
2022-11-08T20:34:12.867Z,99317.31
2022-11-08T20:36:41.585Z,99388.50
2022-11-08T20:39:11.322Z,99385.53
2022-11-08T20:41:40.946Z,99386.22
2022-11-08T20:44:09.967Z,99389.00
2022-11-08T20:46:38.369Z,99386.41
2022-11-08T20:49:06.418Z,99384.53
2022-11-08T20:51:34.858Z,99393.44
2022-11-08T20:54:02.572Z,99384.13
2022-11-08T20:56:31.719Z,99376.56
2022-11-08T20:58:59.499Z,99382.09
2022-11-08T21:01:29.604Z,99392.84
2022-11-08T21:04:15.998Z,99394.88
2022-11-08T21:10:40.960Z,99395.13
2022-11-08T21:13:21.201Z,99394.06
2022-11-08T21:16:28.869Z,99400.84
2022-11-08T21:19:18.176Z,99413.25
2022-11-08T21:22:18.096Z,99415.31
2022-11-08T21:25:06.612Z,99412.59
2022-11-08T21:27:54.570Z,99402.41
2022-11-08T21:30:46.534Z,99414.88
2022-11-08T21:33:34.689Z,99428.56
2022-11-08T21:36:26.484Z,99421.94
2022-11-08T21:39:14.382Z,99429.94
2022-11-08T21:42:02.257Z,99424.19
2022-11-08T21:44:50.171Z,99428.50
2022-11-08T21:47:39.534Z,99417.09
2022-11-08T21:50:27.602Z,99417.00
2022-11-08T21:53:15.592Z,99413.72
2022-11-08T21:56:03.586Z,99422.31
2022-11-08T21:58:51.535Z,99428.34
2022-11-08T22:01:39.491Z,99418.50
2022-11-08T22:04:28.761Z,99411.72
2022-11-08T22:07:16.690Z,99410.72
2022-11-08T22:10:04.843Z,99407.88
2022-11-08T22:12:52.738Z,99405.47
2022-11-08T22:15:40.685Z,99413.28
2022-11-08T22:18:50.806Z,99409.59
2022-11-08T22:21:44.125Z,99406.34
2022-11-08T22:24:32.115Z,99397.72
2022-11-08T22:27:20.088Z,99406.81
2022-11-08T22:30:14.012Z,99414.34
2022-11-08T22:33:04.602Z,99407.84
2022-11-08T22:35:52.527Z,99405.84
2022-11-08T22:38:41.787Z,99404.75
2022-11-08T22:41:29.745Z,99401.91
2022-11-08T22:44:18.513Z,99403.63
2022-11-08T22:47:06.465Z,99421.38
2022-11-08T22:49:54.377Z,99417.78
2022-11-08T22:52:42.302Z,99403.94
2022-11-08T22:55:31.598Z,99411.53
2022-11-08T22:58:19.588Z,99405.31
2022-11-08T23:01:08.081Z,99403.38
2022-11-08T23:03:56.075Z,99399.22
2022-11-08T23:06:44.575Z,99399.16
2022-11-08T23:09:32.556Z,99380.59
2022-11-08T23:12:39.534Z,99384.47
2022-11-08T23:15:50.581Z,99375.63
2022-11-08T23:18:38.497Z,99375.84
2022-11-08T23:21:43.941Z,99385.84
2022-11-08T23:24:32.549Z,99384.66
2022-11-08T23:27:39.363Z,99385.72
2022-11-08T23:30:44.993Z,99382.09
2022-11-08T23:33:32.908Z,99386.41
2022-11-08T23:36:21.175Z,99390.19
2022-11-08T23:39:09.128Z,99376.63
2022-11-08T23:42:29.323Z,99378.03
2022-11-08T23:45:19.029Z,99325.09
2022-11-08T23:48:06.926Z,99362.19
2022-11-08T23:50:55.774Z,99360.56
2022-11-08T23:53:43.983Z,99352.19
2022-11-08T23:56:31.892Z,99361.56
2022-11-08T23:59:19.849Z,99363.94
